createdAt,value
2023-01-20T00:02:33.394Z,2.26
2023-01-20T00:07:35.360Z,2.32
2023-01-20T00:12:37.262Z,2.28
2023-01-20T00:17:39.086Z,2.31
2023-01-20T00:22:40.891Z,2.32
2023-01-20T00:27:42.713Z,2.30
2023-01-20T00:32:44.697Z,2.36
2023-01-20T00:37:46.763Z,2.42
2023-01-20T00:42:48.642Z,2.46
2023-01-20T00:47:50.466Z,2.43
2023-01-20T00:52:52.283Z,2.48
2023-01-20T00:57:54.181Z,2.47
2023-01-20T01:02:56.144Z,2.46
2023-01-20T01:07:58.040Z,2.52
2023-01-20T01:13:00.951Z,2.56
2023-01-20T01:18:02.898Z,2.67
2023-01-20T01:23:04.779Z,2.63
2023-01-20T01:28:06.680Z,2.71
2023-01-20T01:33:08.571Z,2.74
2023-01-20T01:38:10.435Z,2.74
2023-01-20T01:43:35.757Z,2.68
2023-01-20T01:48:40.468Z,2.79
2023-01-20T01:53:46.093Z,2.79
2023-01-20T01:58:48.901Z,2.84
2023-01-20T02:03:59.988Z,2.84
2023-01-20T02:09:02.674Z,2.80
2023-01-20T02:14:04.302Z,2.76
2023-01-20T02:19:08.730Z,2.77
2023-01-20T02:24:43.239Z,2.78
2023-01-20T02:29:48.181Z,2.78
2023-01-20T02:34:57.339Z,2.85
2023-01-20T02:40:28.332Z,2.79
2023-01-20T02:45:42.135Z,2.88
2023-01-20T02:50:54.137Z,2.92
2023-01-20T02:55:56.001Z,2.84
2023-01-20T03:01:08.478Z,2.79
2023-01-20T03:06:20.242Z,2.81
2023-01-20T03:11:22.140Z,2.79
2023-01-20T03:16:24.792Z,2.90
2023-01-20T03:21:26.397Z,2.84
2023-01-20T03:26:28.448Z,2.88
2023-01-20T03:31:34.227Z,2.90
2023-01-20T03:36:36.175Z,2.94
2023-01-20T03:41:49.950Z,2.93
2023-01-20T03:47:18.146Z,2.94
2023-01-20T03:52:48.121Z,3.05
2023-01-20T03:58:01.816Z,3.02
2023-01-20T04:03:09.343Z,3.06
2023-01-20T04:08:11.417Z,2.94
2023-01-20T04:13:13.722Z,2.97
2023-01-20T04:18:17.561Z,2.93
2023-01-20T04:23:28.077Z,2.96
2023-01-20T04:28:30.425Z,3.03
2023-01-20T04:33:32.334Z,3.05
2023-01-20T04:38:34.273Z,3.04
2023-01-20T04:43:36.219Z,3.06
2023-01-20T04:48:38.030Z,3.00
2023-01-20T04:53:39.818Z,3.08
2023-01-20T04:58:41.906Z,2.99
2023-01-20T05:03:44.041Z,2.89
2023-01-20T05:08:45.835Z,2.99
2023-01-20T05:13:47.588Z,3.00
2023-01-20T05:18:49.619Z,3.10
2023-01-20T05:23:53.956Z,3.08
2023-01-20T05:28:55.768Z,3.09
2023-01-20T05:33:57.540Z,3.16
2023-01-20T05:38:59.251Z,3.11
2023-01-20T05:44:00.991Z,3.16
2023-01-20T05:49:02.783Z,3.13
2023-01-20T05:54:04.671Z,3.14
2023-01-20T05:59:06.459Z,3.16
2023-01-20T06:04:08.292Z,3.15
2023-01-20T06:09:10.037Z,3.16
2023-01-20T06:14:12.457Z,3.16
2023-01-20T06:19:14.221Z,3.18
2023-01-20T06:24:16.088Z,3.12
2023-01-20T06:29:17.834Z,3.14
2023-01-20T06:34:19.588Z,3.13
2023-01-20T06:39:21.335Z,3.07
2023-01-20T06:44:23.136Z,3.08
2023-01-20T06:49:24.922Z,3.09
2023-01-20T06:54:26.660Z,3.08
2023-01-20T06:59:28.409Z,3.11
2023-01-20T07:04:30.356Z,3.10
2023-01-20T07:09:32.096Z,3.09
2023-01-20T07:14:33.819Z,3.15
2023-01-20T07:19:35.644Z,3.07
2023-01-20T07:24:37.450Z,3.13
2023-01-20T07:29:39.166Z,3.15
2023-01-20T07:34:40.914Z,3.15
2023-01-20T07:39:42.739Z,3.07
2023-01-20T07:44:44.520Z,3.12
2023-01-20T07:49:46.301Z,3.11
2023-01-20T07:54:48.094Z,3.10
2023-01-20T07:59:49.855Z,3.10
2023-01-20T08:04:51.691Z,3.08
2023-01-20T08:09:53.508Z,3.18
2023-01-20T08:14:55.398Z,3.22
2023-01-20T08:19:57.294Z,3.24
2023-01-20T08:24:59.257Z,3.36
2023-01-20T08:30:00.978Z,3.26
2023-01-20T08:35:02.790Z,3.25
2023-01-20T08:40:09.268Z,3.30
2023-01-20T08:45:11.213Z,3.30
2023-01-20T08:50:14.098Z,3.36
2023-01-20T08:55:16.238Z,3.28
2023-01-20T09:00:18.798Z,3.33
2023-01-20T09:05:20.569Z,3.44
2023-01-20T09:10:22.324Z,3.45
2023-01-20T09:15:25.602Z,3.45
2023-01-20T09:20:27.739Z,3.61
2023-01-20T09:25:29.549Z,3.58
2023-01-20T09:30:31.349Z,3.65
2023-01-20T09:35:33.087Z,3.68
2023-01-20T09:40:58.486Z,3.67
2023-01-20T09:46:14.459Z,3.75
2023-01-20T09:51:31.393Z,3.75
2023-01-20T09:56:35.878Z,3.75
2023-01-20T10:01:48.537Z,3.86
2023-01-20T10:06:52.763Z,3.85
2023-01-20T10:11:58.984Z,3.72
2023-01-20T10:17:37.159Z,3.68
2023-01-20T10:22:56.482Z,3.83
2023-01-20T10:28:11.669Z,3.99
2023-01-20T10:33:23.825Z,4.02
2023-01-20T10:38:53.572Z,3.97
2023-01-20T10:43:56.053Z,4.05
2023-01-20T10:49:16.380Z,4.00
2023-01-20T10:54:29.216Z,4.07
2023-01-20T10:59:52.157Z,4.03
2023-01-20T11:05:18.971Z,4.03
2023-01-20T11:10:22.797Z,3.92
2023-01-20T11:15:29.594Z,4.07
2023-01-20T11:20:31.358Z,3.98
2023-01-20T11:25:33.137Z,4.10
2023-01-20T11:30:34.916Z,3.99
2023-01-20T11:35:36.943Z,3.95
2023-01-20T11:40:38.673Z,4.04
2023-01-20T11:45:40.404Z,4.04
2023-01-20T11:50:49.529Z,3.94
2023-01-20T11:55:56.265Z,4.02
2023-01-20T12:01:07.784Z,4.06
2023-01-20T12:06:19.303Z,4.07
2023-01-20T12:11:31.113Z,4.05
2023-01-20T12:16:33.000Z,4.03
2023-01-20T12:21:35.785Z,3.99
2023-01-20T12:26:37.552Z,4.06
2023-01-20T12:31:39.335Z,4.07
2023-01-20T12:36:53.771Z,4.06
2023-01-20T12:42:12.121Z,4.09
2023-01-20T12:47:22.982Z,4.06
2023-01-20T12:52:58.331Z,4.15
2023-01-20T12:58:30.974Z,4.16
2023-01-20T13:03:41.462Z,4.18
2023-01-20T13:09:06.289Z,4.19
2023-01-20T13:14:22.994Z,4.16
2023-01-20T13:19:37.311Z,4.08
2023-01-20T13:24:39.570Z,4.09
2023-01-20T13:29:50.948Z,4.07
2023-01-20T13:34:52.898Z,3.97
2023-01-20T13:39:55.171Z,3.98
2023-01-20T13:45:12.248Z,3.87
2023-01-20T13:50:31.534Z,4.02
2023-01-20T13:55:42.682Z,3.99
2023-01-20T14:00:44.630Z,3.78
2023-01-20T14:05:56.345Z,3.77
2023-01-20T14:11:08.072Z,3.70
2023-01-20T14:16:34.606Z,3.66
2023-01-20T14:21:40.698Z,3.63
2023-01-20T14:26:42.433Z,3.65
2023-01-20T14:31:45.964Z,3.61
2023-01-20T14:36:48.005Z,3.67
2023-01-20T14:41:51.606Z,3.62
2023-01-20T14:46:55.577Z,3.69
2023-01-20T14:51:57.568Z,3.75
2023-01-20T14:56:59.973Z,3.70
2023-01-20T15:02:02.831Z,3.65
2023-01-20T15:07:04.798Z,3.57
2023-01-20T15:12:47.964Z,3.42
2023-01-20T15:18:13.919Z,3.42
2023-01-20T15:23:27.602Z,3.30
2023-01-20T15:28:29.543Z,3.30
2023-01-20T15:33:31.446Z,3.32
2023-01-20T15:38:33.185Z,3.36
2023-01-20T15:43:34.930Z,3.46
2023-01-20T15:48:36.703Z,3.51
2023-01-20T15:53:38.468Z,3.44
2023-01-20T15:58:40.312Z,3.47
2023-01-20T16:03:42.723Z,3.48
2023-01-20T16:08:46.578Z,3.51
2023-01-20T16:13:48.539Z,3.39
2023-01-20T16:18:50.360Z,3.36
2023-01-20T16:23:52.226Z,3.37
2023-01-20T16:28:55.708Z,3.35
2023-01-20T16:33:57.628Z,3.33
2023-01-20T16:38:59.560Z,3.30
2023-01-20T16:44:01.419Z,3.29
2023-01-20T16:49:03.254Z,3.30
2023-01-20T16:54:05.139Z,3.30
2023-01-20T16:59:06.981Z,3.28
2023-01-20T17:04:08.749Z,3.22
2023-01-20T17:09:10.590Z,3.17
2023-01-20T17:14:12.397Z,3.20
2023-01-20T17:19:16.136Z,3.21
2023-01-20T17:24:19.257Z,3.21
2023-01-20T17:29:21.612Z,3.30
2023-01-20T17:34:23.511Z,3.23
2023-01-20T17:39:25.479Z,3.18
2023-01-20T17:44:27.387Z,3.20
2023-01-20T17:49:29.185Z,3.25
2023-01-20T17:54:31.073Z,3.30
2023-01-20T17:59:32.851Z,3.16
2023-01-20T18:04:34.640Z,3.17
2023-01-20T18:09:36.636Z,3.25
2023-01-20T18:14:38.491Z,3.21
2023-01-20T18:19:40.361Z,3.10
2023-01-20T18:24:42.235Z,3.10
2023-01-20T18:29:44.041Z,3.06
2023-01-20T18:34:46.540Z,3.10
2023-01-20T18:39:48.313Z,3.07
2023-01-20T18:44:50.844Z,2.96
2023-01-20T18:49:53.910Z,3.04
2023-01-20T18:54:55.759Z,2.95
2023-01-20T18:59:58.077Z,2.99
2023-01-20T19:04:59.981Z,2.94
2023-01-20T19:10:02.013Z,2.97
2023-01-20T19:15:07.223Z,2.96
2023-01-20T19:20:10.161Z,2.95
2023-01-20T19:25:11.933Z,3.01
2023-01-20T19:30:15.564Z,3.04
2023-01-20T19:35:17.505Z,3.03
2023-01-20T19:40:19.402Z,3.01
2023-01-20T19:45:21.295Z,3.00
2023-01-20T19:50:23.182Z,2.94
2023-01-20T19:55:25.069Z,2.89
2023-01-20T20:00:26.850Z,3.00
2023-01-20T20:05:28.863Z,3.04
2023-01-20T20:10:30.747Z,2.86
2023-01-20T20:15:32.723Z,2.82
2023-01-20T20:20:34.648Z,2.72
2023-01-20T20:25:36.507Z,2.59
2023-01-20T20:30:38.438Z,2.52
2023-01-20T20:35:40.381Z,2.53
2023-01-20T20:40:42.387Z,2.49
2023-01-20T20:45:44.286Z,2.43
2023-01-20T20:50:46.227Z,2.41
2023-01-20T20:55:48.175Z,2.36
2023-01-20T21:00:50.589Z,2.35
2023-01-20T21:05:52.511Z,2.28
2023-01-20T21:10:54.439Z,2.36
2023-01-20T21:16:04.738Z,2.33
2023-01-20T21:21:08.304Z,2.34
2023-01-20T21:26:12.344Z,2.31
2023-01-20T21:31:16.160Z,2.23
2023-01-20T21:36:18.081Z,2.24
2023-01-20T21:41:19.984Z,2.24
2023-01-20T21:46:21.778Z,2.24
2023-01-20T21:51:23.686Z,2.17
2023-01-20T21:56:25.599Z,2.19
2023-01-20T22:01:27.575Z,2.14
2023-01-20T22:06:29.557Z,2.13
2023-01-20T22:11:31.416Z,2.11
2023-01-20T22:16:33.341Z,2.15
2023-01-20T22:21:35.380Z,2.19
2023-01-20T22:26:37.215Z,2.10
2023-01-20T22:31:39.388Z,2.12
2023-01-20T22:36:41.271Z,1.98
2023-01-20T22:41:43.169Z,1.72
2023-01-20T22:46:45.030Z,1.61
2023-01-20T22:51:46.955Z,1.61
2023-01-20T22:56:48.822Z,1.50
2023-01-20T23:01:50.679Z,1.39
2023-01-20T23:06:52.513Z,1.27
2023-01-20T23:11:54.295Z,1.30
2023-01-20T23:16:56.136Z,1.25
2023-01-20T23:21:58.064Z,1.05
2023-01-20T23:26:59.962Z,1.02
2023-01-20T23:32:01.915Z,0.92
2023-01-20T23:37:04.005Z,0.99
2023-01-20T23:42:05.942Z,0.92
2023-01-20T23:47:07.717Z,0.80
2023-01-20T23:52:09.572Z,0.78
2023-01-20T23:57:11.460Z,0.70
